This is the latest recevied weather packets stored in our database for station/object DL9GJ-6. If no packets are shown the sender has not sent any weather packets the latest 10 day(s).
| Time | Temp. | Humidity | Pressure | Rain* | Wind** | Luminosity | Snow |
|---|---|---|---|---|---|---|---|
| 1777954809 | 6.11° C | 93% | 1008.7 hPa | 0 mm | - | 14 W/m² | - |
| 1777954462 | 6.11° C | 93% | 1008.7 hPa | 0 mm | - | 8 W/m² | - |
| 1777954101 | 6.11° C | 93% | 1008.6 hPa | 0 mm | - | 6 W/m² | - |
| 1777953382 | 6.11° C | 93% | 1008.7 hPa | 0 mm | - | 0 W/m² | - |
| 1777953369 | 6.11° C | 93% | 1008.7 hPa | 0 mm | - | 0 W/m² | - |
| 1777943663 | 8.33° C | 92% | 1010 hPa | 0.25 mm | - | 0 W/m² | - |
| 1777943303 | 8.33° C | 92% | 1010 hPa | 0.25 mm | - | 0 W/m² | - |
| 1777941502 | 8.89° C | 92% | 1010.3 hPa | 0 mm | - | 0 W/m² | - |
| 1777940422 | 8.89° C | 92% | 1010.1 hPa | 0 mm | - | 0 W/m² | - |
| 1777940063 | 9.44° C | 92% | 1010.3 hPa | 0 mm | - | 0 W/m² | - |
| 1777939703 | 9.44° C | 91% | 1010.3 hPa | 0 mm | - | 0 W/m² | - |
| 1777936822 | 10° C | 91% | 1010.4 hPa | 0 mm | - | 0 W/m² | - |
| 1777934303 | 11.11° C | 89% | 1010.4 hPa | 0 mm | - | 0 W/m² | - |
| 1777932864 | 11.67° C | 88% | 1010.6 hPa | 0 mm | - | 0 W/m² | - |
| 1777932503 | 11.67° C | 88% | 1010.6 hPa | 0 mm | - | 0 W/m² | - |
| 1777932143 | 11.67° C | 88% | 1010.6 hPa | 0 mm | - | 0 W/m² | - |
| 1777930702 | 12.22° C | 87% | 1010.7 hPa | 0 mm | - | 0 W/m² | - |
| 1777930343 | 12.22° C | 87% | 1010.8 hPa | 0 mm | - | 0 W/m² | - |
| 1777929983 | 12.22° C | 87% | 1010.8 hPa | 0 mm | - | 0 W/m² | - |
| 1777929623 | 12.22° C | 86% | 1010.8 hPa | 0 mm | - | 0 W/m² | - |
| 1777929616 | 12.22° C | 86% | 1010.8 hPa | 0 mm | - | 0 W/m² | - |
| 1777929251 | 12.22° C | 86% | 1010.8 hPa | 0 mm | - | 0 W/m² | - |
| 1777928901 | 12.22° C | 87% | 1010.9 hPa | 0 mm | - | 0 W/m² | - |
| 1777928530 | 12.78° C | 87% | 1010.9 hPa | 0 mm | - | 0 W/m² | - |
| 1777927102 | 12.78° C | 87% | 1010.9 hPa | 0 mm | - | 0 W/m² | - |
* Rain latest hour (hover to see other rain measurements)
** Current wind speed in m/s (hover to see current wind gust speed)